createdAt,value
2023-03-26T00:00:13.360Z,2.83
2023-03-26T00:02:46.989Z,2.90
2023-03-26T00:05:19.981Z,2.97
2023-03-26T00:07:52.208Z,2.90
2023-03-26T00:10:25.445Z,2.95
2023-03-26T00:12:57.994Z,2.65
2023-03-26T00:15:29.985Z,3.17
2023-03-26T00:18:02.324Z,2.45
2023-03-26T00:20:34.226Z,2.55
2023-03-26T00:23:08.234Z,2.85
2023-03-26T00:25:41.891Z,3.10
2023-03-26T00:28:17.437Z,3.65
2023-03-26T00:30:56.799Z,2.90
2023-03-26T00:33:31.621Z,3.20
2023-03-26T00:36:05.827Z,2.67
2023-03-26T00:38:39.195Z,2.70
2023-03-26T00:41:22.966Z,3.08
2023-03-26T00:43:58.637Z,3.17
2023-03-26T00:46:31.958Z,2.45
2023-03-26T00:49:04.822Z,3.10
2023-03-26T00:51:39.571Z,2.72
2023-03-26T00:54:12.651Z,2.70
2023-03-26T00:56:45.964Z,2.47
2023-03-26T00:59:17.888Z,2.70
2023-03-26T01:01:51.593Z,2.58
2023-03-26T01:04:30.743Z,2.40
2023-03-26T01:07:13.676Z,2.20
2023-03-26T01:09:50.374Z,2.30
2023-03-26T01:12:32.231Z,2.40
2023-03-26T01:15:05.150Z,2.10
2023-03-26T01:17:38.607Z,2.97
2023-03-26T01:20:26.622Z,2.70
2023-03-26T01:23:05.722Z,2.25
2023-03-26T01:25:45.098Z,2.42
2023-03-26T01:28:19.915Z,2.53
2023-03-26T01:31:20.158Z,2.80
2023-03-26T01:34:34.272Z,2.88
2023-03-26T01:37:52.579Z,2.30
2023-03-26T01:40:43.018Z,2.33
2023-03-26T01:43:28.884Z,2.92
2023-03-26T01:46:06.823Z,2.17
2023-03-26T01:48:49.246Z,2.65
2023-03-26T01:54:31.814Z,2.58
2023-03-26T01:57:42.086Z,2.38
2023-03-26T02:00:22.833Z,2.10
2023-03-26T02:03:18.572Z,2.50
2023-03-26T02:05:58.414Z,2.72
2023-03-26T02:08:48.649Z,3.42
2023-03-26T02:11:21.625Z,2.58
2023-03-26T02:14:17.914Z,2.58
2023-03-26T02:16:51.794Z,2.55
2023-03-26T02:19:24.896Z,2.30
2023-03-26T02:21:59.917Z,2.50
2023-03-26T02:24:34.047Z,2.72
2023-03-26T02:27:08.274Z,2.40
2023-03-26T02:29:42.535Z,2.75
2023-03-26T02:32:19.653Z,2.67
2023-03-26T02:34:52.042Z,2.85
2023-03-26T02:37:24.708Z,2.65
2023-03-26T02:40:11.176Z,2.20
2023-03-26T02:42:47.655Z,3.13
2023-03-26T02:45:19.835Z,2.47
2023-03-26T02:48:15.899Z,2.85
2023-03-26T02:51:02.671Z,2.75
2023-03-26T02:53:51.160Z,2.63
2023-03-26T02:56:42.782Z,2.70
2023-03-26T02:59:41.633Z,2.47
2023-03-26T03:02:54.459Z,3.22
2023-03-26T03:05:38.455Z,2.90
2023-03-26T03:08:29.744Z,2.72
2023-03-26T03:11:24.973Z,2.45
2023-03-26T03:13:57.901Z,2.90
2023-03-26T03:16:32.824Z,2.45
2023-03-26T03:19:11.770Z,3.20
2023-03-26T03:21:44.784Z,2.65
2023-03-26T03:24:18.868Z,2.55
2023-03-26T03:26:56.389Z,2.72
2023-03-26T03:29:41.719Z,2.45
2023-03-26T03:32:37.446Z,2.75
2023-03-26T03:35:10.972Z,2.10
2023-03-26T03:37:44.838Z,2.35
2023-03-26T03:40:20.059Z,2.95
2023-03-26T03:42:52.711Z,2.22
2023-03-26T03:45:35.318Z,2.75
2023-03-26T03:48:19.968Z,2.70
2023-03-26T03:50:55.491Z,2.45
2023-03-26T03:53:37.754Z,2.55
2023-03-26T03:56:10.681Z,2.88
2023-03-26T03:59:19.528Z,2.75
2023-03-26T04:04:54.906Z,2.75
2023-03-26T04:07:33.307Z,2.65
2023-03-26T04:10:09.786Z,2.50
2023-03-26T04:13:01.879Z,2.95
2023-03-26T04:15:56.592Z,2.70
2023-03-26T04:18:30.710Z,2.63
2023-03-26T04:21:07.439Z,2.50
2023-03-26T04:23:40.280Z,2.85
2023-03-26T04:26:24.079Z,2.88
2023-03-26T04:29:12.370Z,2.75
2023-03-26T04:31:44.703Z,2.50
2023-03-26T04:34:24.637Z,2.63
2023-03-26T04:37:27.773Z,2.65
2023-03-26T04:40:19.401Z,2.53
2023-03-26T04:43:19.723Z,2.70
2023-03-26T04:46:21.973Z,2.67
2023-03-26T04:49:04.494Z,2.17
2023-03-26T04:51:42.225Z,2.05
2023-03-26T04:54:47.315Z,2.50
2023-03-26T04:57:31.237Z,2.13
2023-03-26T05:00:20.168Z,1.80
2023-03-26T05:03:01.984Z,2.35
2023-03-26T05:05:34.480Z,2.33
2023-03-26T05:08:10.509Z,1.90
2023-03-26T05:10:42.565Z,2.03
2023-03-26T05:13:19.664Z,2.45
2023-03-26T05:15:56.072Z,2.05
2023-03-26T05:18:57.708Z,2.10
2023-03-26T05:21:35.849Z,2.38
2023-03-26T05:24:08.762Z,1.90
2023-03-26T05:26:40.909Z,2.00
2023-03-26T05:29:16.978Z,2.05
2023-03-26T05:31:53.349Z,2.00
2023-03-26T05:34:27.543Z,1.95
2023-03-26T05:36:59.973Z,2.30
2023-03-26T05:39:53.409Z,2.25
2023-03-26T05:42:47.888Z,2.05
2023-03-26T05:45:48.501Z,1.80
2023-03-26T05:48:26.526Z,1.80
2023-03-26T05:50:59.708Z,2.30
2023-03-26T05:56:36.652Z,2.40
2023-03-26T05:59:29.734Z,2.33
2023-03-26T06:02:20.927Z,2.42
2023-03-26T06:05:27.556Z,2.37
2023-03-26T06:08:13.725Z,1.90
2023-03-26T06:11:03.052Z,2.10
2023-03-26T06:13:40.517Z,2.20
2023-03-26T06:16:26.536Z,2.90
2023-03-26T06:19:05.001Z,2.53
2023-03-26T06:21:58.135Z,2.33
2023-03-26T06:24:38.156Z,2.20
2023-03-26T06:27:30.405Z,2.05
2023-03-26T06:30:29.324Z,2.47
2023-03-26T06:33:11.053Z,2.10
2023-03-26T06:35:50.844Z,2.45
2023-03-26T06:38:22.941Z,2.50
2023-03-26T06:41:02.468Z,2.30
2023-03-26T06:43:45.882Z,2.13
2023-03-26T06:46:47.923Z,1.90
2023-03-26T06:49:49.610Z,2.08
2023-03-26T06:52:36.928Z,2.10
2023-03-26T06:55:18.849Z,2.08
2023-03-26T06:58:14.576Z,2.30
2023-03-26T07:01:05.425Z,2.08
2023-03-26T07:03:57.049Z,2.38
2023-03-26T07:06:50.801Z,2.15
2023-03-26T07:09:42.362Z,1.90
2023-03-26T07:12:32.968Z,2.13
2023-03-26T07:15:29.800Z,2.20
2023-03-26T07:18:18.804Z,3.00
2023-03-26T07:20:53.522Z,2.20
2023-03-26T07:23:27.531Z,2.40
2023-03-26T07:26:26.821Z,2.17
2023-03-26T07:29:20.904Z,2.17
2023-03-26T07:32:23.130Z,2.33
2023-03-26T07:35:42.615Z,2.50
2023-03-26T07:39:17.578Z,1.80
2023-03-26T07:42:40.240Z,2.00
2023-03-26T07:45:46.004Z,2.20
2023-03-26T07:48:48.090Z,2.00
2023-03-26T07:51:56.354Z,1.98
2023-03-26T07:54:47.837Z,2.42
2023-03-26T07:58:01.192Z,2.40
2023-03-26T08:01:00.680Z,2.47
2023-03-26T08:04:23.606Z,2.25
2023-03-26T08:07:45.037Z,2.28
2023-03-26T08:10:56.680Z,2.40
2023-03-26T08:14:03.364Z,2.38
2023-03-26T08:16:59.470Z,2.30
2023-03-26T08:22:40.974Z,2.30
2023-03-26T08:25:30.018Z,2.40
2023-03-26T08:29:08.176Z,1.95
2023-03-26T08:31:42.613Z,2.10
2023-03-26T08:34:16.940Z,2.40
2023-03-26T08:37:10.643Z,2.50
2023-03-26T08:39:43.432Z,2.20
2023-03-26T08:42:58.472Z,2.30
2023-03-26T08:45:56.338Z,2.08
2023-03-26T08:49:23.882Z,2.20
2023-03-26T08:52:53.541Z,2.00
2023-03-26T08:55:36.944Z,2.05
2023-03-26T08:58:45.312Z,2.38
2023-03-26T09:01:40.295Z,2.38
2023-03-26T09:04:12.184Z,2.47
2023-03-26T09:07:41.654Z,2.80
2023-03-26T09:10:58.249Z,2.45
2023-03-26T09:14:27.643Z,2.47
2023-03-26T09:17:51.912Z,2.30
2023-03-26T09:20:48.355Z,2.50
2023-03-26T09:23:34.183Z,2.25
2023-03-26T09:26:41.041Z,2.10
2023-03-26T09:29:21.578Z,2.60
2023-03-26T09:32:39.512Z,2.30
2023-03-26T09:35:52.241Z,2.50
2023-03-26T09:38:42.878Z,2.08
2023-03-26T09:41:43.941Z,2.20
2023-03-26T09:45:20.776Z,2.13
2023-03-26T09:48:43.664Z,2.17
2023-03-26T09:52:03.824Z,2.17
2023-03-26T09:55:08.338Z,2.40
2023-03-26T09:58:08.750Z,1.80
2023-03-26T10:01:44.924Z,1.77
2023-03-26T10:05:04.971Z,1.73
2023-03-26T10:08:32.199Z,2.03
2023-03-26T10:11:33.245Z,2.20
2023-03-26T10:14:51.116Z,2.22
2023-03-26T10:18:27.188Z,1.90
2023-03-26T10:21:13.655Z,1.92
2023-03-26T10:23:58.911Z,1.97
2023-03-26T10:27:08.616Z,3.20
2023-03-26T10:30:09.065Z,1.95
2023-03-26T10:33:06.609Z,1.90
2023-03-26T10:36:30.916Z,2.10
2023-03-26T10:39:36.701Z,2.10
2023-03-26T10:42:56.440Z,1.90
2023-03-26T10:45:56.748Z,2.10
2023-03-26T10:49:23.004Z,2.00
2023-03-26T10:52:10.266Z,2.10
2023-03-26T10:55:04.114Z,5.07
2023-03-26T10:57:50.652Z,3.00
2023-03-26T11:00:26.202Z,2.05
2023-03-26T11:03:08.669Z,2.67
2023-03-26T11:05:49.253Z,2.00
2023-03-26T11:08:41.178Z,2.40
2023-03-26T11:11:44.908Z,2.33
2023-03-26T11:14:43.859Z,2.10
2023-03-26T11:17:40.230Z,2.85
2023-03-26T11:20:49.800Z,2.10
2023-03-26T11:23:37.752Z,2.23
2023-03-26T11:26:31.576Z,2.22
2023-03-26T11:29:31.264Z,2.13
2023-03-26T11:32:12.187Z,1.80
2023-03-26T11:35:40.857Z,1.50
2023-03-26T11:38:40.791Z,2.10
2023-03-26T11:41:28.646Z,1.70
2023-03-26T11:47:27.487Z,1.70
2023-03-26T11:50:02.610Z,1.63
2023-03-26T11:52:35.017Z,1.60
2023-03-26T11:55:12.367Z,1.50
2023-03-26T11:57:55.042Z,1.90
2023-03-26T12:00:30.941Z,1.63
2023-03-26T12:03:03.424Z,1.70
2023-03-26T12:05:50.928Z,1.90
2023-03-26T12:08:33.697Z,1.50
2023-03-26T12:11:12.644Z,1.50
2023-03-26T12:13:53.796Z,1.70
2023-03-26T12:16:27.546Z,1.90
2023-03-26T12:19:07.723Z,1.98
2023-03-26T12:21:58.496Z,1.73
2023-03-26T12:24:34.076Z,2.00
2023-03-26T12:27:21.601Z,1.98
2023-03-26T12:30:11.063Z,2.00
2023-03-26T12:32:46.643Z,2.28
2023-03-26T12:38:34.212Z,1.98
2023-03-26T12:43:40.267Z,2.00
2023-03-26T12:48:00.605Z,1.90
2023-03-26T12:50:40.847Z,2.38
2023-03-26T12:53:38.839Z,1.90
2023-03-26T12:56:13.722Z,2.35
2023-03-26T12:59:04.488Z,2.03
2023-03-26T13:02:19.645Z,2.20
2023-03-26T13:05:29.963Z,2.00
2023-03-26T13:08:20.701Z,3.00
2023-03-26T13:11:39.348Z,2.13
2023-03-26T13:14:33.816Z,2.20
2023-03-26T13:17:45.530Z,2.25
2023-03-26T13:20:41.968Z,2.40
2023-03-26T13:23:57.581Z,2.75
2023-03-26T13:26:59.190Z,2.00
2023-03-26T13:29:57.020Z,2.38
2023-03-26T13:32:47.738Z,2.10
2023-03-26T13:35:39.560Z,2.58
2023-03-26T13:38:38.206Z,2.47
2023-03-26T13:41:33.685Z,1.95
2023-03-26T13:44:47.914Z,2.10
2023-03-26T13:47:30.740Z,1.98
2023-03-26T13:50:30.957Z,2.13
2023-03-26T13:53:08.724Z,1.88
2023-03-26T13:55:42.195Z,1.92
2023-03-26T13:58:34.658Z,2.00
2023-03-26T14:01:18.005Z,1.85
2023-03-26T14:04:18.386Z,1.83
2023-03-26T14:07:12.747Z,1.90
2023-03-26T14:10:02.422Z,1.85
2023-03-26T14:13:06.979Z,1.80
2023-03-26T14:15:50.497Z,2.25
2023-03-26T14:22:39.760Z,2.00
2023-03-26T14:25:24.983Z,1.38
2023-03-26T14:28:15.614Z,1.60
2023-03-26T14:31:04.491Z,1.70
2023-03-26T14:33:50.174Z,1.67
2023-03-26T14:36:56.393Z,1.73
2023-03-26T14:39:55.483Z,1.70
2023-03-26T14:46:14.598Z,1.50
2023-03-26T14:49:33.443Z,1.70
2023-03-26T14:52:20.655Z,1.40
2023-03-26T14:54:57.952Z,1.60
2023-03-26T15:01:26.042Z,1.63
2023-03-26T15:04:10.655Z,1.83
2023-03-26T15:07:09.809Z,2.13
2023-03-26T15:10:05.369Z,1.67
2023-03-26T15:13:12.322Z,1.75
2023-03-26T15:16:27.999Z,1.60
2023-03-26T15:19:51.860Z,1.50
2023-03-26T15:23:00.881Z,1.48
2023-03-26T15:26:03.751Z,1.40
2023-03-26T15:29:17.036Z,1.25
2023-03-26T15:32:04.557Z,1.35
2023-03-26T15:35:02.554Z,1.60
2023-03-26T15:38:13.028Z,1.63
2023-03-26T15:41:27.165Z,1.50
2023-03-26T15:46:38.349Z,1.60
2023-03-26T15:49:53.295Z,1.50
2023-03-26T15:52:48.916Z,1.42
2023-03-26T15:55:36.644Z,1.50
2023-03-26T15:58:26.617Z,1.50
2023-03-26T16:01:33.703Z,1.60
2023-03-26T16:04:26.895Z,1.55
2023-03-26T16:07:05.514Z,1.90
2023-03-26T16:09:47.254Z,1.67
2023-03-26T16:12:38.019Z,1.90
2023-03-26T16:15:32.437Z,1.70
2023-03-26T16:18:11.795Z,1.60
2023-03-26T16:20:55.343Z,1.73
2023-03-26T16:23:47.738Z,2.08
2023-03-26T16:26:52.167Z,1.90
2023-03-26T16:29:28.437Z,1.98
2023-03-26T16:32:18.803Z,1.80
2023-03-26T16:34:57.717Z,1.80
2023-03-26T16:37:33.647Z,1.30
2023-03-26T16:40:19.069Z,2.38
2023-03-26T16:43:26.855Z,1.80
2023-03-26T16:46:51.833Z,2.78
2023-03-26T16:49:41.446Z,1.50
2023-03-26T16:52:19.908Z,1.58
2023-03-26T16:55:07.223Z,1.52
2023-03-26T16:58:06.108Z,1.92
2023-03-26T17:00:49.029Z,1.60
2023-03-26T17:03:32.395Z,1.60
2023-03-26T17:06:49.945Z,1.60
2023-03-26T17:09:58.018Z,1.90
2023-03-26T17:12:42.861Z,1.90
2023-03-26T17:15:36.437Z,2.10
2023-03-26T17:18:49.320Z,1.80
2023-03-26T17:21:55.895Z,1.90
2023-03-26T17:24:55.540Z,2.37
2023-03-26T17:28:27.923Z,1.80
2023-03-26T17:31:18.200Z,1.60
2023-03-26T17:33:51.319Z,2.15
2023-03-26T17:36:43.909Z,1.80
2023-03-26T17:39:38.808Z,2.00
2023-03-26T17:42:29.014Z,2.15
2023-03-26T17:45:17.605Z,2.08
2023-03-26T17:48:20.062Z,2.25
2023-03-26T17:50:58.082Z,2.58
2023-03-26T17:53:34.942Z,1.90
2023-03-26T17:56:16.782Z,1.88
2023-03-26T17:58:54.727Z,2.47
2023-03-26T18:01:42.000Z,1.83
2023-03-26T18:04:27.455Z,2.30
2023-03-26T18:07:35.273Z,2.00
2023-03-26T18:10:46.706Z,2.05
2023-03-26T18:13:22.437Z,2.20
2023-03-26T18:16:17.090Z,1.60
2023-03-26T18:18:59.467Z,2.38
2023-03-26T18:21:39.646Z,2.10
2023-03-26T18:24:52.456Z,2.30
2023-03-26T18:27:24.529Z,1.88
2023-03-26T18:30:02.997Z,2.28
2023-03-26T18:32:36.117Z,1.95
2023-03-26T18:35:20.748Z,2.50
2023-03-26T18:37:59.407Z,1.95
2023-03-26T18:40:40.683Z,2.40
2023-03-26T18:43:28.874Z,2.50
2023-03-26T18:46:08.612Z,2.40
2023-03-26T18:48:40.597Z,1.92
2023-03-26T18:51:13.475Z,2.00
2023-03-26T18:53:53.067Z,2.08
2023-03-26T18:56:42.358Z,2.03
2023-03-26T18:59:32.047Z,2.10
2023-03-26T19:02:10.902Z,1.80
2023-03-26T19:04:47.349Z,2.28
2023-03-26T19:07:25.591Z,2.10
2023-03-26T19:10:00.716Z,2.60
2023-03-26T19:12:36.006Z,2.20
2023-03-26T19:15:16.516Z,2.03
2023-03-26T19:17:56.749Z,1.90
2023-03-26T19:20:39.526Z,1.90
2023-03-26T19:23:19.849Z,2.35
2023-03-26T19:25:54.905Z,2.40
2023-03-26T19:28:49.428Z,2.50
2023-03-26T19:31:37.507Z,2.00
2023-03-26T19:34:13.528Z,1.83
2023-03-26T19:36:59.898Z,2.08
2023-03-26T19:39:51.876Z,2.25
2023-03-26T19:42:43.187Z,1.87
2023-03-26T19:45:23.387Z,2.78
2023-03-26T19:48:07.794Z,2.00
2023-03-26T19:51:05.341Z,1.77
2023-03-26T19:53:44.664Z,2.13
2023-03-26T19:56:18.690Z,1.97
2023-03-26T19:58:52.061Z,1.90
2023-03-26T20:01:27.341Z,1.70
2023-03-26T20:04:04.701Z,1.83
2023-03-26T20:06:43.805Z,1.70
2023-03-26T20:09:17.000Z,1.90
2023-03-26T20:11:49.641Z,1.73
2023-03-26T20:14:26.419Z,2.00
2023-03-26T20:16:58.839Z,1.80
2023-03-26T20:19:31.681Z,1.95
2023-03-26T20:22:06.762Z,2.10
2023-03-26T20:24:39.407Z,1.90
2023-03-26T20:27:14.147Z,1.90
2023-03-26T20:29:46.897Z,1.90
2023-03-26T20:32:26.369Z,2.03
2023-03-26T20:34:59.397Z,1.93
2023-03-26T20:37:31.879Z,1.90
2023-03-26T20:40:09.732Z,1.77
2023-03-26T20:42:44.561Z,2.08
2023-03-26T20:45:21.914Z,1.92
2023-03-26T20:47:54.171Z,1.93
2023-03-26T20:50:27.255Z,2.38
2023-03-26T20:53:01.062Z,2.20
2023-03-26T20:55:33.008Z,2.10
2023-03-26T20:58:06.304Z,1.70
2023-03-26T21:00:38.200Z,1.70
2023-03-26T21:03:17.875Z,1.88
2023-03-26T21:05:52.718Z,1.73
2023-03-26T21:08:30.441Z,1.77
2023-03-26T21:11:05.827Z,1.90
2023-03-26T21:13:58.619Z,1.73
2023-03-26T21:16:31.809Z,1.73
2023-03-26T21:19:07.210Z,1.90
2023-03-26T21:22:14.193Z,1.77
2023-03-26T21:25:06.149Z,1.83
2023-03-26T21:27:47.380Z,2.20
2023-03-26T21:30:20.659Z,1.75
2023-03-26T21:32:53.053Z,2.10
2023-03-26T21:35:26.111Z,1.90
2023-03-26T21:37:58.834Z,1.83
2023-03-26T21:40:31.423Z,1.70
2023-03-26T21:43:04.472Z,2.00
2023-03-26T21:45:37.250Z,1.50
2023-03-26T21:48:11.043Z,1.83
2023-03-26T21:50:44.200Z,2.22
2023-03-26T21:53:17.833Z,1.90
2023-03-26T21:56:18.780Z,1.88
2023-03-26T21:59:43.110Z,1.85
2023-03-26T22:02:33.714Z,1.90
2023-03-26T22:05:35.681Z,1.88
2023-03-26T22:08:17.739Z,1.93
2023-03-26T22:10:49.693Z,2.17
2023-03-26T22:13:22.036Z,1.92
2023-03-26T22:15:54.938Z,2.30
2023-03-26T22:18:30.127Z,2.13
2023-03-26T22:21:02.944Z,1.73
2023-03-26T22:23:36.551Z,1.90
2023-03-26T22:26:09.397Z,2.10
2023-03-26T22:28:41.502Z,1.90
2023-03-26T22:31:15.212Z,2.15
2023-03-26T22:33:47.099Z,2.20
2023-03-26T22:36:22.859Z,1.70
2023-03-26T22:38:58.586Z,2.22
2023-03-26T22:41:31.023Z,2.00
2023-03-26T22:44:16.822Z,2.10
2023-03-26T22:46:54.846Z,2.20
2023-03-26T22:49:30.486Z,2.20
2023-03-26T22:52:02.370Z,2.03
2023-03-26T22:54:36.808Z,1.88
2023-03-26T22:57:09.024Z,2.05
2023-03-26T22:59:41.787Z,1.93
2023-03-26T23:02:13.980Z,1.73
2023-03-26T23:04:48.114Z,2.00
2023-03-26T23:07:21.171Z,2.13
2023-03-26T23:09:53.746Z,1.77
2023-03-26T23:12:26.289Z,2.00
2023-03-26T23:14:58.393Z,2.20
2023-03-26T23:17:34.596Z,2.20
2023-03-26T23:23:08.312Z,2.10
2023-03-26T23:25:41.876Z,2.10
2023-03-26T23:28:14.504Z,1.88
2023-03-26T23:30:53.256Z,2.17
2023-03-26T23:33:30.453Z,1.90
2023-03-26T23:36:09.382Z,1.50
2023-03-26T23:38:43.508Z,2.00
2023-03-26T23:41:23.103Z,1.85
2023-03-26T23:43:59.239Z,2.17
2023-03-26T23:46:34.919Z,2.00
2023-03-26T23:49:06.933Z,2.55
2023-03-26T23:51:39.694Z,2.10
2023-03-26T23:54:12.172Z,2.00
2023-03-26T23:56:44.165Z,1.83
2023-03-26T23:59:17.380Z,1.75
